Time;durP1;ratioP1;P1;durP2;ratioP2;P2;SDS_P1;SDS_P2;PMS_P1;PMS_P2;Temp;Humidity;BMP_temperature;BMP_pressure;BME280_temperature;BME280_humidity;BME280_pressure;Samples;Min_cycle;Max_cycle;Signal;HPM_P1;HPM_P2
2021/09/22 00:00:07;;;;;;;8.47;5.83;;;;;;;-143.37;100.00;65745.06;5093166;28;20204;-75
2021/09/22 00:02:48;;;;;;;10.57;5.50;;;;;;;-143.37;100.00;65745.06;5093266;28;20815;-75
2021/09/22 00:05:30;;;;;;;8.57;5.53;;;;;;;-143.37;100.00;65745.06;5091596;28;20271;-76
2021/09/22 00:08:11;;;;;;;11.47;6.33;;;;;;;-143.37;100.00;65745.06;5093408;28;20219;-75
2021/09/22 00:10:53;;;;;;;8.53;6.03;;;;;;;-143.37;100.00;65745.06;5093704;28;20606;-75
2021/09/22 00:13:34;;;;;;;8.63;5.77;;;;;;;-143.37;100.00;65745.06;5092694;28;20307;-75
2021/09/22 00:16:15;;;;;;;10.20;6.53;;;;;;;-143.37;100.00;65745.06;5092819;28;20315;-76
2021/09/22 00:18:57;;;;;;;11.10;6.27;;;;;;;-143.37;100.00;65745.06;5091991;28;20206;-75
2021/09/22 00:21:38;;;;;;;9.27;6.00;;;;;;;-143.37;100.00;65745.06;5093574;28;20288;-75
2021/09/22 00:24:19;;;;;;;10.37;6.93;;;;;;;-143.37;100.00;65745.06;5108521;28;20554;-75
2021/09/22 00:27:01;;;;;;;8.93;5.83;;;;;;;-143.37;100.00;65745.06;5091607;28;20806;-75
2021/09/22 00:29:42;;;;;;;8.67;6.07;;;;;;;-143.37;100.00;65745.06;5093093;28;20576;-75
2021/09/22 00:32:23;;;;;;;9.40;5.97;;;;;;;-143.37;100.00;65745.06;5061604;28;20530;-76
2021/09/22 00:35:05;;;;;;;9.77;6.13;;;;;;;-143.37;100.00;65745.06;5093079;28;20728;-75
2021/09/22 00:37:47;;;;;;;8.33;5.97;;;;;;;-143.37;100.00;65745.06;5093820;28;20291;-75
2021/09/22 00:40:28;;;;;;;10.27;6.20;;;;;;;-143.37;100.00;65745.06;5092507;28;20228;-76
2021/09/22 00:43:10;;;;;;;8.10;5.90;;;;;;;-143.37;100.00;65745.06;5092174;28;20756;-75
2021/09/22 00:45:51;;;;;;;7.27;5.20;;;;;;;-143.37;100.00;65745.06;5091979;28;20273;-76
2021/09/22 00:48:32;;;;;;;9.30;6.47;;;;;;;-143.37;100.00;65745.06;5092381;28;20208;-77
2021/09/22 00:51:18;;;;;;;7.73;5.00;;;;;;;-143.37;100.00;65745.06;5092206;28;20296;-77
2021/09/22 00:53:59;;;;;;;9.87;5.70;;;;;;;-143.37;100.00;65745.06;5090648;28;20665;-76
2021/09/22 00:56:40;;;;;;;7.30;5.73;;;;;;;-143.37;100.00;65745.06;5096640;28;20259;-76
2021/09/22 00:59:21;;;;;;;9.90;5.97;;;;;;;-143.37;100.00;65745.06;5112649;28;20641;-75
2021/09/22 01:34:23;;;;;;;8.77;5.83;;;;;;;-143.37;100.00;65745.06;5089037;28;20366;-75
2021/09/22 01:36:49;;;;;;;13.53;6.83;;;;;;;-143.37;100.00;65745.06;5087729;28;20224;-75
2021/09/22 01:39:16;;;;;;;10.33;6.90;;;;;;;-143.37;100.00;65745.06;5089199;28;20644;-74
2021/09/22 01:41:42;;;;;;;9.67;6.00;;;;;;;-143.37;100.00;65745.06;5089317;28;20295;-76
2021/09/22 01:44:09;;;;;;;9.97;6.47;;;;;;;-143.37;100.00;65745.06;5088957;28;20299;-75
2021/09/22 01:46:35;;;;;;;7.80;6.07;;;;;;;-143.37;100.00;65745.06;5087510;28;20233;-75
2021/09/22 01:49:02;;;;;;;10.83;6.90;;;;;;;-143.37;100.00;65745.06;5089024;28;20299;-74
2021/09/22 01:51:28;;;;;;;8.80;6.00;;;;;;;-143.37;100.00;65745.06;5087846;28;20295;-74
2021/09/22 01:53:55;;;;;;;9.87;6.30;;;;;;;-143.37;100.00;65745.06;5087437;28;20812;-74
2021/09/22 01:56:21;;;;;;;7.53;6.10;;;;;;;-143.37;100.00;65745.06;5087204;28;20255;-75
2021/09/22 01:58:48;;;;;;;8.43;6.17;;;;;;;-143.37;100.00;65745.06;5088557;28;20215;-74
2021/09/22 02:01:14;;;;;;;9.57;6.20;;;;;;;-143.37;100.00;65745.06;5087349;28;20589;-75
2021/09/22 02:03:42;;;;;;;9.33;6.63;;;;;;;-143.37;100.00;65745.06;5087385;28;20197;-74
2021/09/22 02:06:08;;;;;;;8.47;6.17;;;;;;;-143.37;100.00;65745.06;5078419;28;20244;-75
2021/09/22 02:08:39;;;;;;;11.83;5.83;;;;;;;-143.37;100.00;65745.06;5068312;28;20917;-75
2021/09/22 02:11:06;;;;;;;8.53;5.80;;;;;;;-143.37;100.00;65745.06;5066961;28;20717;-75
2021/09/22 02:13:33;;;;;;;8.40;6.07;;;;;;;-143.37;100.00;65745.06;5067934;28;20270;-76
2021/09/22 02:16:00;;;;;;;8.03;5.33;;;;;;;-143.37;100.00;65745.06;5066637;28;20276;-75
2021/09/22 02:18:27;;;;;;;8.47;5.97;;;;;;;-143.37;100.00;65745.06;5068078;28;20212;-75
2021/09/22 02:20:53;;;;;;;7.63;5.63;;;;;;;-143.37;100.00;65745.06;5068008;28;20288;-73
2021/09/22 02:23:20;;;;;;;8.30;5.37;;;;;;;-143.37;100.00;65745.06;5066787;28;20284;-75
2021/09/22 02:25:46;;;;;;;8.13;6.07;;;;;;;-143.37;100.00;65745.06;5068302;28;20306;-75
2021/09/22 02:28:13;;;;;;;7.30;5.90;;;;;;;-143.37;100.00;65745.06;5068471;28;20676;-75
2021/09/22 02:30:39;;;;;;;8.20;5.47;;;;;;;-143.37;100.00;65745.06;5050956;28;20273;-76
2021/09/22 02:33:06;;;;;;;7.27;5.87;;;;;;;-143.37;100.00;65745.06;5072339;28;20221;-75
2021/09/22 02:35:32;;;;;;;7.37;5.80;;;;;;;-143.37;100.00;65745.06;5088303;28;20271;-74
2021/09/22 02:37:59;;;;;;;7.27;5.37;;;;;;;-143.37;100.00;65745.06;5088585;28;20371;-74
2021/09/22 02:40:25;;;;;;;8.50;6.17;;;;;;;-143.37;100.00;65745.06;5088388;28;20652;-74
2021/09/22 02:42:52;;;;;;;9.77;6.03;;;;;;;-143.37;100.00;65745.06;5088377;28;20228;-75
2021/09/22 02:45:19;;;;;;;7.93;5.63;;;;;;;-143.37;100.00;65745.06;5059447;28;20271;-77
2021/09/22 02:47:45;;;;;;;8.03;5.87;;;;;;;-143.37;100.00;65745.06;5057749;28;20216;-74
2021/09/22 02:50:17;;;;;;;7.00;5.40;;;;;;;-143.37;100.00;65745.06;5057760;28;20209;-75
2021/09/22 02:52:44;;;;;;;6.33;5.10;;;;;;;-143.37;100.00;65745.06;5074086;28;20243;-76
2021/09/22 02:55:11;;;;;;;6.67;4.67;;;;;;;-143.37;100.00;65745.06;5073489;28;20240;-75
2021/09/22 02:57:38;;;;;;;7.90;5.33;;;;;;;-143.37;100.00;65745.06;5057461;28;20201;-75
2021/09/22 03:00:06;;;;;;;9.77;5.43;;;;;;;-143.37;100.00;65745.06;5073900;28;20295;-75
2021/09/22 03:02:32;;;;;;;7.30;5.80;;;;;;;-143.37;100.00;65745.06;5075186;28;20478;-75
2021/09/22 03:04:59;;;;;;;7.47;5.60;;;;;;;-143.37;100.00;65745.06;5074190;28;20208;-76
2021/09/22 03:07:26;;;;;;;10.00;5.53;;;;;;;-143.37;100.00;65745.06;5055241;28;20281;-76
2021/09/22 03:09:52;;;;;;;8.63;6.23;;;;;;;-143.37;100.00;65745.06;5055168;28;20206;-75
2021/09/22 03:12:19;;;;;;;6.30;5.27;;;;;;;-143.37;100.00;65745.06;5054484;28;20260;-76
2021/09/22 03:14:45;;;;;;;8.67;5.80;;;;;;;-143.37;100.00;65745.06;5054321;28;20248;-75
2021/09/22 03:17:12;;;;;;;7.30;5.53;;;;;;;-143.37;100.00;65745.06;5070861;28;20245;-76
2021/09/22 03:19:38;;;;;;;10.50;6.77;;;;;;;-143.37;100.00;65745.06;5055673;28;20368;-77
2021/09/22 03:22:05;;;;;;;9.10;5.20;;;;;;;-143.37;100.00;65745.06;5055235;28;20210;-76
2021/09/22 03:24:32;;;;;;;7.17;5.63;;;;;;;-143.37;100.00;65745.06;5054867;28;20293;-76
2021/09/22 03:26:58;;;;;;;7.93;5.70;;;;;;;-143.37;100.00;65745.06;5055923;28;20309;-76
2021/09/22 03:29:25;;;;;;;8.13;5.63;;;;;;;-143.37;100.00;65745.06;5056723;28;20296;-75
2021/09/22 03:31:51;;;;;;;7.27;5.43;;;;;;;-143.37;100.00;65745.06;5057233;28;20237;-75
2021/09/22 03:34:18;;;;;;;9.40;6.40;;;;;;;-143.37;100.00;65745.06;5091027;28;20315;-75
2021/09/22 03:36:44;;;;;;;7.60;5.40;;;;;;;-143.37;100.00;65745.06;5095124;28;20307;-75
2021/09/22 03:39:11;;;;;;;8.60;5.77;;;;;;;-143.37;100.00;65745.06;5096030;28;20264;-76
2021/09/22 03:41:38;;;;;;;8.30;5.97;;;;;;;-143.37;100.00;65745.06;5096224;28;20291;-76
2021/09/22 03:44:04;;;;;;;9.37;5.97;;;;;;;-143.37;100.00;65745.06;5095634;28;20228;-75
2021/09/22 03:46:31;;;;;;;7.70;5.70;;;;;;;-143.37;100.00;65745.06;5095606;28;20648;-75
2021/09/22 03:48:57;;;;;;;5.77;4.63;;;;;;;-143.37;100.00;65745.06;5097163;28;20646;-75
2021/09/22 03:51:24;;;;;;;8.20;5.23;;;;;;;-143.37;100.00;65745.06;5095548;28;20240;-75
2021/09/22 03:53:52;;;;;;;7.57;5.27;;;;;;;-143.37;100.00;65745.06;5094822;28;20224;-75
2021/09/22 03:56:19;;;;;;;8.10;5.73;;;;;;;-143.37;100.00;65745.06;5093676;28;20288;-76
2021/09/22 03:58:45;;;;;;;8.27;5.63;;;;;;;-143.37;100.00;65745.06;5095238;28;20236;-75
2021/09/22 04:01:15;;;;;;;8.23;6.00;;;;;;;-143.37;100.00;65745.06;5094003;28;20304;-76
2021/09/22 04:03:42;;;;;;;8.40;5.63;;;;;;;-143.37;100.00;65745.06;5092496;28;20598;-77
2021/09/22 04:06:09;;;;;;;8.30;5.30;;;;;;;-143.37;100.00;65745.06;5082684;28;20308;-76
2021/09/22 04:08:35;;;;;;;6.93;5.30;;;;;;;-143.37;100.00;65745.06;5072664;28;20239;-78
2021/09/22 04:11:02;;;;;;;8.03;5.73;;;;;;;-143.37;100.00;65745.06;5071405;28;20299;-77
2021/09/22 04:13:28;;;;;;;7.03;4.73;;;;;;;-143.37;100.00;65745.06;5072131;28;20328;-77
2021/09/22 04:15:55;;;;;;;7.27;5.27;;;;;;;-143.37;100.00;65745.06;5087784;28;20323;-78
2021/09/22 04:18:22;;;;;;;8.00;5.30;;;;;;;-143.37;100.00;65745.06;5072252;28;20205;-76
2021/09/22 04:20:48;;;;;;;7.00;5.50;;;;;;;-143.37;100.00;65745.06;5072560;28;20649;-76
2021/09/22 04:23:15;;;;;;;7.93;5.57;;;;;;;-143.37;100.00;65745.06;5072088;28;20288;-76
2021/09/22 04:25:41;;;;;;;13.13;6.40;;;;;;;-143.37;100.00;65745.06;5071782;28;20316;-77
2021/09/22 04:28:07;;;;;;;9.17;5.60;;;;;;;-143.37;100.00;65745.06;5072279;28;20293;-76
2021/09/22 04:30:34;;;;;;;8.73;6.30;;;;;;;-143.37;100.00;65745.06;5072104;28;20292;-76
2021/09/22 04:33:02;;;;;;;8.67;6.33;;;;;;;-143.37;100.00;65745.06;5076959;28;20212;-77
2021/09/22 04:35:30;;;;;;;7.90;5.80;;;;;;;-143.37;100.00;65745.06;5090574;28;20315;-76
2021/09/22 04:37:57;;;;;;;8.90;5.70;;;;;;;-143.37;100.00;65745.06;5091974;28;20663;-76
2021/09/22 04:40:28;;;;;;;9.27;6.40;;;;;;;-143.37;100.00;65745.06;5092282;28;20238;-77
2021/09/22 04:42:59;;;;;;;8.30;5.83;;;;;;;-143.37;100.00;65745.06;5089008;28;20295;-72
2021/09/22 04:45:27;;;;;;;10.47;6.80;;;;;;;-143.37;100.00;65745.06;5070615;28;20319;-73
2021/09/22 04:47:55;;;;;;;8.03;6.10;;;;;;;-143.37;100.00;65745.06;5067963;28;20201;-73
2021/09/22 04:50:23;;;;;;;8.70;6.13;;;;;;;-143.37;100.00;65745.06;5071567;28;20313;-73
2021/09/22 04:52:50;;;;;;;9.07;5.80;;;;;;;-143.37;100.00;65745.06;5053625;28;20590;-72
2021/09/22 04:55:16;;;;;;;7.57;5.47;;;;;;;-143.37;100.00;65745.06;5085917;28;20231;-73
2021/09/22 04:57:43;;;;;;;9.27;5.97;;;;;;;-143.37;100.00;65745.06;5086897;28;20200;-74
2021/09/22 05:00:10;;;;;;;8.27;5.57;;;;;;;-143.37;100.00;65745.06;5091337;28;20295;-74
2021/09/22 05:02:36;;;;;;;8.57;5.67;;;;;;;-143.37;100.00;65745.06;5091473;28;20216;-74
2021/09/22 05:05:04;;;;;;;7.73;5.97;;;;;;;-143.37;100.00;65745.06;5089088;28;20229;-72
2021/09/22 05:07:30;;;;;;;7.60;5.83;;;;;;;-143.37;100.00;65745.06;5070719;28;20201;-76
2021/09/22 05:09:57;;;;;;;7.37;5.73;;;;;;;-143.37;100.00;65745.06;5069644;28;20223;-77
2021/09/22 05:12:23;;;;;;;9.60;5.83;;;;;;;-143.37;100.00;65745.06;5071748;28;20212;-77
2021/09/22 05:14:50;;;;;;;9.87;6.10;;;;;;;-143.37;100.00;65745.06;5069737;28;20680;-76
2021/09/22 05:17:16;;;;;;;8.17;6.13;;;;;;;-143.37;100.00;65745.06;5071057;28;20245;-73
2021/09/22 05:19:43;;;;;;;7.40;5.60;;;;;;;-143.37;100.00;65745.06;5071056;28;20296;-74
2021/09/22 05:22:09;;;;;;;9.70;6.30;;;;;;;-143.37;100.00;65745.06;5071175;28;20233;-74
2021/09/22 05:24:36;;;;;;;8.47;5.73;;;;;;;-143.37;100.00;65745.06;5070745;28;20273;-76
2021/09/22 05:27:03;;;;;;;10.30;6.10;;;;;;;-143.37;100.00;65745.06;5063681;28;20642;-76
2021/09/22 05:29:29;;;;;;;8.67;6.10;;;;;;;-143.37;100.00;65745.06;5064016;28;20205;-76
2021/09/22 05:31:56;;;;;;;12.10;6.37;;;;;;;-143.37;100.00;65745.06;5063035;28;20208;-74
2021/09/22 05:34:22;;;;;;;7.53;5.97;;;;;;;-143.37;100.00;65745.06;5058351;28;20236;-75
2021/09/22 05:36:49;;;;;;;11.83;6.50;;;;;;;-143.37;100.00;65745.06;5066483;28;20308;-76
2021/09/22 05:39:15;;;;;;;9.40;6.90;;;;;;;-143.37;100.00;65745.06;5060517;28;20238;-75
2021/09/22 05:41:42;;;;;;;10.90;6.83;;;;;;;-143.37;100.00;65745.06;5050078;28;20742;-75
2021/09/22 05:44:09;;;;;;;11.60;6.40;;;;;;;-143.37;100.00;65745.06;5050248;28;20198;-76
2021/09/22 05:46:36;;;;;;;9.67;6.27;;;;;;;-143.37;100.00;65745.06;5050598;28;20365;-75
2021/09/22 05:49:05;;;;;;;11.17;7.00;;;;;;;-143.37;100.00;65745.06;5050000;28;20206;-74
2021/09/22 05:51:32;;;;;;;9.13;5.93;;;;;;;-143.37;100.00;65745.06;5051169;28;20206;-76
2021/09/22 05:53:59;;;;;;;9.23;6.83;;;;;;;-143.37;100.00;65745.06;5048923;28;20229;-74
2021/09/22 05:56:26;;;;;;;8.40;6.03;;;;;;;-143.37;100.00;65745.06;5072216;28;20708;-74
2021/09/22 05:58:52;;;;;;;9.93;6.77;;;;;;;-143.37;100.00;65745.06;5069791;28;20293;-72
2021/09/22 06:01:19;;;;;;;9.33;6.47;;;;;;;-143.37;100.00;65745.06;5069706;28;20295;-73
2021/09/22 06:03:45;;;;;;;9.87;6.33;;;;;;;-143.37;100.00;65745.06;5069449;28;20237;-73
2021/09/22 06:06:12;;;;;;;8.63;6.47;;;;;;;-143.37;100.00;65745.06;5070286;28;20370;-76
2021/09/22 06:08:39;;;;;;;9.73;6.77;;;;;;;-143.37;100.00;65745.06;5065372;28;20202;-72
2021/09/22 06:11:05;;;;;;;9.83;6.90;;;;;;;-143.37;100.00;65745.06;5050345;28;20238;-73
2021/09/22 06:13:32;;;;;;;8.60;5.53;;;;;;;-143.37;100.00;65745.06;5049818;28;20309;-75
2021/09/22 06:16:13;;;;;;;8.47;6.23;;;;;;;-143.37;100.00;65745.06;5048871;28;20320;-76
2021/09/22 06:18:55;;;;;;;9.43;6.47;;;;;;;-143.37;100.00;65745.06;5067098;28;20201;-73
2021/09/22 06:21:37;;;;;;;8.43;6.37;;;;;;;-143.37;100.00;65745.06;5073165;28;20725;-73
2021/09/22 06:24:21;;;;;;;10.00;7.17;;;;;;;-143.37;100.00;65745.06;5071160;28;20252;-74
2021/09/22 06:27:02;;;;;;;9.40;6.60;;;;;;;-143.37;100.00;65745.06;5071914;28;20955;-76
2021/09/22 06:29:43;;;;;;;10.27;6.73;;;;;;;-143.37;100.00;65745.06;5062538;28;20311;-72
2021/09/22 06:32:25;;;;;;;8.33;6.30;;;;;;;-143.37;100.00;65745.06;5071501;28;20280;-72
2021/09/22 06:35:07;;;;;;;7.77;5.50;;;;;;;-143.37;100.00;65745.06;5068946;28;20283;-76
2021/09/22 06:37:49;;;;;;;9.10;6.93;;;;;;;-143.37;100.00;65745.06;5071198;28;20220;-76
2021/09/22 06:40:31;;;;;;;8.23;6.13;;;;;;;-143.37;100.00;65745.06;5070311;28;20337;-76
2021/09/22 06:43:12;;;;;;;10.60;5.90;;;;;;;-143.37;100.00;65745.06;5087309;28;20217;-76
2021/09/22 06:45:53;;;;;;;9.23;6.50;;;;;;;-143.37;100.00;65745.06;5072105;28;20247;-76
2021/09/22 06:48:35;;;;;;;8.40;6.33;;;;;;;-143.37;100.00;65745.06;5073564;28;20632;-76
2021/09/22 06:51:20;;;;;;;9.33;6.13;;;;;;;-143.37;100.00;65745.06;5074119;28;20304;-77
2021/09/22 06:54:01;;;;;;;7.83;5.90;;;;;;;-143.37;100.00;65745.06;5073342;28;20236;-76
2021/09/22 06:56:42;;;;;;;7.07;5.20;;;;;;;-143.37;100.00;65745.06;5073230;28;20312;-76
2021/09/22 06:59:23;;;;;;;10.03;6.00;;;;;;;-143.37;100.00;65745.06;5073750;28;20575;-76
2021/09/22 07:02:04;;;;;;;7.57;5.47;;;;;;;-143.37;100.00;65745.06;5089245;28;20232;-77
2021/09/22 07:04:47;;;;;;;9.17;5.03;;;;;;;-143.37;100.00;65745.06;5073441;28;20209;-76
2021/09/22 07:07:28;;;;;;;7.63;5.33;;;;;;;-143.37;100.00;65745.06;5073599;28;20207;-76
2021/09/22 07:10:09;;;;;;;7.60;5.57;;;;;;;-143.37;100.00;65745.06;5073809;28;20674;-75
2021/09/22 07:12:52;;;;;;;6.50;4.93;;;;;;;-143.37;100.00;65745.06;5073619;28;20207;-76
2021/09/22 07:15:33;;;;;;;7.73;5.50;;;;;;;-143.37;100.00;65745.06;5072369;28;20277;-75
2021/09/22 07:18:28;;;;;;;8.43;4.90;;;;;;;-143.37;100.00;65745.06;5074680;28;20205;-77
2021/09/22 07:21:10;;;;;;;14.77;5.37;;;;;;;-143.37;100.00;65745.06;5074299;28;20212;-76
2021/09/22 07:23:52;;;;;;;6.90;4.87;;;;;;;-143.37;100.00;65745.06;5074354;28;20205;-77
2021/09/22 07:26:33;;;;;;;10.90;5.33;;;;;;;-143.37;100.00;65745.06;5073094;28;20232;-76
2021/09/22 07:29:14;;;;;;;7.87;4.97;;;;;;;-143.37;100.00;65745.06;5071744;28;20284;-76
2021/09/22 07:31:56;;;;;;;6.77;4.63;;;;;;;-143.37;100.00;65745.06;5072767;28;20212;-76
2021/09/22 07:34:37;;;;;;;8.63;6.30;;;;;;;-143.37;100.00;65745.06;5071387;28;20221;-76
2021/09/22 07:37:19;;;;;;;10.47;6.47;;;;;;;-143.37;100.00;65745.06;5073249;28;20229;-76
2021/09/22 07:40:01;;;;;;;10.97;6.20;;;;;;;-143.37;100.00;65745.06;5073548;28;20197;-76
2021/09/22 07:42:42;;;;;;;9.37;6.30;;;;;;;-143.37;100.00;65745.06;5072988;28;20670;-76
2021/09/22 07:45:25;;;;;;;10.87;6.50;;;;;;;-143.37;100.00;65745.06;5071365;28;20352;-76
2021/09/22 07:48:07;;;;;;;10.50;7.03;;;;;;;-143.37;100.00;65745.06;5073070;28;20560;-77
2021/09/22 07:50:48;;;;;;;9.40;5.93;;;;;;;-143.37;100.00;65745.06;5073587;28;20295;-76
2021/09/22 07:53:30;;;;;;;8.90;6.47;;;;;;;-143.37;100.00;65745.06;5072993;28;20201;-76
2021/09/22 07:56:11;;;;;;;8.07;5.87;;;;;;;-143.37;100.00;65745.06;5072736;28;20395;-77
2021/09/22 07:58:52;;;;;;;8.67;6.30;;;;;;;-143.37;100.00;65745.06;5072806;28;20228;-76
2021/09/22 08:01:33;;;;;;;12.97;6.67;;;;;;;-143.37;100.00;65745.06;5073122;28;20223;-75
2021/09/22 08:04:15;;;;;;;15.20;6.57;;;;;;;-143.37;100.00;65745.06;5072458;28;20678;-76
2021/09/22 08:07:02;;;;;;;11.33;6.50;;;;;;;-143.37;100.00;65745.06;5072111;28;20307;-77
2021/09/22 08:09:44;;;;;;;10.70;6.73;;;;;;;-143.37;100.00;65745.06;5072230;28;20248;-76
2021/09/22 08:12:25;;;;;;;8.37;6.10;;;;;;;-143.37;100.00;65745.06;5072785;28;20232;-77
2021/09/22 08:15:07;;;;;;;10.17;6.50;;;;;;;-143.37;100.00;65745.06;5070795;28;20268;-76
2021/09/22 08:17:48;;;;;;;9.93;6.33;;;;;;;-143.37;100.00;65745.06;5056321;28;20292;-76
2021/09/22 08:20:29;;;;;;;9.30;6.70;;;;;;;-143.37;100.00;65745.06;5072830;28;20240;-77
2021/09/22 08:23:11;;;;;;;6.93;5.60;;;;;;;-143.37;100.00;65745.06;5073078;28;20240;-76
2021/09/22 08:25:52;;;;;;;8.80;6.30;;;;;;;-143.37;100.00;65745.06;5093184;28;20255;-77
2021/09/22 08:28:33;;;;;;;8.33;6.00;;;;;;;-143.37;100.00;65745.06;5088147;28;20221;-77
2021/09/22 08:31:14;;;;;;;7.50;5.33;;;;;;;-143.37;100.00;65745.06;5072029;28;20233;-76
2021/09/22 08:33:56;;;;;;;8.37;5.60;;;;;;;-143.37;100.00;65745.06;5082670;28;20220;-76
2021/09/22 08:36:22;;;;;;;8.00;6.17;;;;;;;15.55;100.00;99138.69;5091500;28;20259;-77
2021/09/22 08:38:50;;;;;;;8.90;6.07;;;;;;;15.60;100.00;99150.41;5091708;28;20299;-77
2021/09/22 08:41:32;;;;;;;13.27;6.17;;;;;;;-143.37;100.00;65745.06;5091751;28;20219;-76
2021/09/22 08:44:15;;;;;;;8.47;5.63;;;;;;;-143.37;100.00;65745.06;5090687;28;20581;-77
2021/09/22 08:46:58;;;;;;;12.10;5.97;;;;;;;-143.37;100.00;65745.06;5090785;28;20311;-78
2021/09/22 08:49:40;;;;;;;11.90;6.00;;;;;;;-143.37;100.00;65745.06;5090886;28;20557;-76
2021/09/22 08:52:22;;;;;;;11.30;5.37;;;;;;;-143.37;100.00;65745.06;5092019;28;20277;-77
2021/09/22 08:55:05;;;;;;;6.93;5.07;;;;;;;-143.37;100.00;65745.06;5091591;28;20236;-76
2021/09/22 08:57:47;;;;;;;7.80;5.07;;;;;;;-143.37;100.00;65745.06;5101394;28;20228;-76
2021/09/22 09:00:29;;;;;;;8.60;5.10;;;;;;;-143.37;100.00;65745.06;5112114;28;20199;-78
2021/09/22 09:03:33;;;;;;;5.63;4.57;;;;;;;-143.37;100.00;65745.06;5093886;28;20287;-76
2021/09/22 09:06:34;;;;;;;6.40;4.20;;;;;;;-143.37;100.00;65745.06;5082212;28;20291;-77
2021/09/22 09:09:16;;;;;;;6.28;3.78;;;;;;;-143.37;100.00;65745.06;5070965;28;20245;-76
2021/09/22 09:11:58;;;;;;;4.78;3.35;;;;;;;-143.37;100.00;65745.06;5070399;28;20197;-76
2021/09/22 09:14:39;;;;;;;7.68;3.42;;;;;;;-143.37;100.00;65745.06;5069784;28;20205;-77
2021/09/22 09:17:34;;;;;;;4.10;2.28;;;;;;;-143.37;100.00;65745.06;5070343;28;20323;-76
2021/09/22 09:20:19;;;;;;;4.55;2.78;;;;;;;-143.37;100.00;65745.06;5070884;28;20299;-75
2021/09/22 09:23:19;;;;;;;3.42;2.70;;;;;;;-143.37;100.00;65745.06;5070260;28;20211;-77
2021/09/22 09:26:08;;;;;;;3.75;2.60;;;;;;;-143.37;100.00;65745.06;5070936;28;20244;-76
2021/09/22 09:28:53;;;;;;;4.18;2.80;;;;;;;-143.37;100.00;65745.06;5074975;28;20261;-78
2021/09/22 09:31:35;;;;;;;3.92;2.70;;;;;;;-143.37;100.00;65745.06;5091790;28;20194;-77
2021/09/22 09:34:16;;;;;;;3.83;2.47;;;;;;;-143.37;100.00;65745.06;5109135;28;20212;-77
2021/09/22 09:36:58;;;;;;;3.30;2.20;;;;;;;-143.37;100.00;65745.06;5088969;28;20324;-77
2021/09/22 09:39:39;;;;;;;4.90;3.40;;;;;;;-143.37;100.00;65745.06;5090001;28;20243;-76
2021/09/22 09:42:27;;;;;;;5.55;2.75;;;;;;;-143.37;100.00;65745.06;5089767;28;20878;-77
2021/09/22 09:45:12;;;;;;;3.85;2.72;;;;;;;-143.37;100.00;65745.06;5090543;28;20234;-77
2021/09/22 09:47:59;;;;;;;6.28;2.72;;;;;;;-143.37;100.00;65745.06;5090703;28;20251;-77
2021/09/22 09:50:45;;;;;;;4.35;2.65;;;;;;;-143.37;100.00;65745.06;5091552;28;20295;-76
2021/09/22 09:53:49;;;;;;;7.88;3.25;;;;;;;-143.37;100.00;65745.06;5093041;28;20291;-76
2021/09/22 09:56:33;;;;;;;5.47;2.92;;;;;;;-143.37;100.00;65745.06;5094834;28;20311;-76
2021/09/22 09:59:16;;;;;;;3.08;2.42;;;;;;;-143.37;100.00;65745.06;5095246;28;20295;-76
2021/09/22 10:02:00;;;;;;;3.90;2.72;;;;;;;-143.37;100.00;65745.06;5094779;28;20247;-78
2021/09/22 10:04:41;;;;;;;4.53;2.55;;;;;;;-143.37;100.00;65745.06;5093617;28;20280;-77
2021/09/22 10:07:22;;;;;;;5.00;1.88;;;;;;;-143.37;100.00;65745.06;5076887;28;20252;-76
2021/09/22 10:10:04;;;;;;;3.90;2.33;;;;;;;-143.37;100.00;65745.06;5074595;28;20197;-77
2021/09/22 10:12:47;;;;;;;4.50;2.95;;;;;;;-143.37;100.00;65745.06;5074239;28;20267;-76
2021/09/22 10:15:29;;;;;;;5.05;2.28;;;;;;;-143.37;100.00;65745.06;5073549;28;20233;-78
2021/09/22 10:18:11;;;;;;;4.03;2.35;;;;;;;-143.37;100.00;65745.06;5090034;28;20303;-75
2021/09/22 10:20:53;;;;;;;3.45;1.95;;;;;;;-143.37;100.00;65745.06;5089714;28;20211;-78
2021/09/22 10:23:36;;;;;;;3.53;2.50;;;;;;;-143.37;100.00;65745.06;5073826;28;20240;-76
2021/09/22 10:26:18;;;;;;;5.55;3.00;;;;;;;-143.37;nan;65745.06;5074001;28;20312;-76
2021/09/22 10:28:46;;;;;;;4.85;2.30;;;;;;;19.74;100.00;99038.59;5073798;28;20209;-76
2021/09/22 10:31:27;;;;;;;4.32;2.10;;;;;;;19.75;100.00;99027.03;5074018;28;20300;-77
2021/09/22 10:33:54;;;;;;;3.47;2.35;;;;;;;19.52;100.00;99028.22;5086635;28;20212;-76
2021/09/22 10:36:51;;;;;;;11.52;2.33;;;;;;;19.29;100.00;99033.81;5094136;28;20278;-77
2021/09/22 10:39:44;;;;;;;6.50;2.10;;;;;;;19.12;100.00;99045.50;5094895;28;20239;-78
2021/09/22 10:42:30;;;;;;;4.35;2.20;;;;;;;18.89;100.00;99047.44;5092848;28;20288;-77
2021/09/22 10:45:15;;;;;;;4.43;2.40;;;;;;;18.63;100.00;99045.31;5094531;28;20212;-76
2021/09/22 10:47:42;;;;;;;5.00;3.13;;;;;;;18.41;100.00;99050.81;5094538;28;20207;-77
2021/09/22 10:50:36;;;;;;;2.33;1.85;;;;;;;18.84;100.00;99044.94;5094017;28;20218;-77
2021/09/22 10:53:35;;;;;;;4.78;2.40;;;;;;;18.80;100.00;99050.47;5093684;28;20204;-76
2021/09/22 10:56:16;;;;;;;7.65;3.72;;;;;;;19.27;100.00;99047.34;5091903;28;20262;-77
2021/09/22 10:58:54;;;;;;;5.85;2.50;;;;;;;19.61;100.00;99034.38;5092641;28;20250;-75
2021/09/22 11:01:41;;;;;;;3.80;2.28;;;;;;;19.59;100.00;99020.75;5093944;28;20214;-76
2021/09/22 11:04:13;;;;;;;6.40;2.13;;;;;;;-143.37;100.00;65745.06;5082353;28;20204;-75
2021/09/22 11:06:47;;;;;;;5.65;2.50;;;;;;;-143.37;100.00;65745.06;5078777;28;20252;-77
2021/09/22 11:09:28;;;;;;;2.83;1.70;;;;;;;19.69;100.00;99003.31;5088678;28;20288;-77
2021/09/22 11:12:03;;;;;;;3.20;1.50;;;;;;;19.93;100.00;99002.06;5073091;28;20288;-77
2021/09/22 11:14:48;;;;;;;3.70;2.05;;;;;;;20.36;100.00;99003.50;5072552;28;20254;-78
2021/09/22 11:17:15;;;;;;;2.97;1.88;;;;;;;20.28;100.00;98973.75;5072844;28;20244;-77
2021/09/22 11:19:44;;;;;;;6.10;1.98;;;;;;;20.28;100.00;98973.75;5088158;28;20211;-76
2021/09/22 11:22:18;;;;;;;6.82;1.50;;;;;;;20.16;100.00;98967.16;5073524;28;20206;-77
2021/09/22 11:24:46;;;;;;;2.67;1.48;;;;;;;20.48;100.00;98961.19;5072719;28;20212;-78
2021/09/22 11:27:17;;;;;;;2.50;1.58;;;;;;;20.71;100.00;98959.06;5073129;28;20202;-77
2021/09/22 11:29:52;;;;;;;4.00;2.17;;;;;;;21.01;100.00;98963.41;5073371;28;20288;-77
2021/09/22 11:32:41;;;;;;;4.63;2.10;;;;;;;20.88;100.00;98953.63;5087700;28;20212;-77
2021/09/22 11:35:12;;;;;;;2.78;1.52;;;;;;;20.38;100.00;98957.09;5051305;28;20253;-78
2021/09/22 11:37:48;;;;;;;1.95;1.30;;;;;;;20.42;100.00;98951.50;5052113;28;20624;-78
2021/09/22 11:40:21;;;;;;;5.95;1.52;;;;;;;20.48;100.00;98955.56;5051540;28;20304;-77
2021/09/22 11:43:03;;;;;;;3.83;1.83;;;;;;;20.21;100.00;98943.63;5052274;28;20190;-77
2021/09/22 11:45:35;;;;;;;3.53;1.67;;;;;;;20.07;100.00;98951.84;5051832;28;20229;-78
2021/09/22 11:48:08;;;;;;;4.35;1.42;;;;;;;19.89;100.00;98954.38;5052318;28;20215;-78
2021/09/22 11:50:38;;;;;;;2.25;1.58;;;;;;;19.68;100.00;98956.06;5052631;28;20245;-78
2021/09/22 11:53:26;;;;;;;2.63;1.63;;;;;;;19.49;100.00;98965.38;5053442;28;20283;-78
2021/09/22 11:55:53;;;;;;;4.55;1.48;;;;;;;-143.37;100.00;65745.06;5053805;28;20297;-78
2021/09/22 11:58:22;;;;;;;4.38;1.38;;;;;;;-143.37;100.00;65745.06;5093058;28;20299;-78
2021/09/22 12:00:52;;;;;;;3.67;1.60;;;;;;;-143.37;100.00;65745.06;5090912;28;20597;-77
2021/09/22 12:03:24;;;;;;;6.57;1.88;;;;;;;19.46;100.00;75147.38;5092031;28;20694;-77
2021/09/22 12:06:06;;;;;;;3.92;1.88;;;;;;;-143.37;100.00;65745.06;5091755;28;20719;-78
2021/09/22 12:08:35;;;;;;;7.38;1.48;;;;;;;-143.37;100.00;65745.06;5092846;28;20246;-77
2021/09/22 12:11:03;;;;;;;5.50;2.03;;;;;;;-143.37;100.00;65745.06;5091144;28;20240;-77
2021/09/22 12:13:29;;;;;;;4.32;1.70;;;;;;;-143.37;100.00;65745.06;5091593;28;20208;-78
2021/09/22 12:15:59;;;;;;;5.25;1.60;;;;;;;-143.37;100.00;65745.06;5090428;28;20327;-78